Time;durP1;ratioP1;P1;durP2;ratioP2;P2;SDS_P1;SDS_P2;PMS_P1;PMS_P2;Temp;Humidity;BMP_temperature;BMP_pressure;BME280_temperature;BME280_humidity;BME280_pressure;Samples;Min_cycle;Max_cycle;Signal;HPM_P1;HPM_P2
2022/12/19 00:01:38;;;;;;;;;;;;;;;1.21;nan;103133.66;5022761;28;19929;-33
2022/12/19 00:04:05;;;;;;;;;;;;;;;1.23;nan;103135.34;5028265;28;19928;-35
2022/12/19 00:06:31;;;;;;;;;;;;;;;1.20;nan;103126.69;5022042;28;20403;-36
2022/12/19 00:08:59;;;;;;;;;;;;;;;1.21;nan;103124.91;5031439;28;19924;-34
2022/12/19 00:11:24;;;;;;;;;;;;;;;1.18;nan;103114.59;5032244;28;19975;-34
2022/12/19 00:13:50;;;;;;;;;;;;;;;1.14;nan;103099.97;5028923;28;19936;-34
2022/12/19 00:16:16;;;;;;;;;;;;;;;1.16;nan;103105.97;5031926;28;19981;-34
2022/12/19 00:18:43;;;;;;;;;;;;;;;1.20;nan;103094.19;5020808;28;20144;-36
2022/12/19 00:21:10;;;;;;;;;;;;;;;1.18;nan;103086.38;5018773;28;19960;-34
2022/12/19 00:23:35;;;;;;;;;;;;;;;1.20;nan;103100.28;5024157;28;20054;-34
2022/12/19 00:26:17;;;;;;;;;;;;;;;1.16;nan;103090.97;5025502;28;20016;-34
2022/12/19 00:28:44;;;;;;;;;;;;;;;1.13;nan;103078.03;5025544;28;19921;-33
2022/12/19 00:31:12;;;;;;;;;;;;;;;1.18;nan;103064.44;5032655;28;19963;-35
2022/12/19 00:33:38;;;;;;;;;;;;;;;1.16;nan;103054.00;5038304;28;20171;-36
2022/12/19 00:36:05;;;;;;;;;;;;;;;1.17;nan;103057.47;5031997;28;20305;-34
2022/12/19 00:38:31;;;;;;;;;;;;;;;1.21;nan;103058.88;5035322;28;20541;-34
2022/12/19 00:41:09;;;;;;;;;;;;;;;1.24;nan;103055.97;5032826;28;19921;-33
2022/12/19 00:43:35;;;;;;;;;;;;;;;1.21;nan;103054.44;5030748;28;20032;-35
2022/12/19 00:46:01;;;;;;;;;;;;;;;1.16;nan;103051.34;5032665;28;20000;-33
2022/12/19 00:48:27;;;;;;;;;;;;;;;1.17;nan;103041.63;5034054;28;19925;-34
2022/12/19 00:50:59;;;;;;;;;;;;;;;1.18;nan;103035.38;5035190;28;20276;-33
2022/12/19 00:53:24;;;;;;;;;;;;;;;1.17;nan;103039.81;5031231;28;19925;-33
2022/12/19 00:55:50;;;;;;;;;;;;;;;1.14;nan;103033.97;5035005;28;19974;-33
2022/12/19 00:58:15;;;;;;;;;;;;;;;1.11;nan;103023.69;5033678;28;20010;-34
2022/12/19 01:00:40;;;;;;;;;;;;;;;1.08;nan;103019.50;5033561;28;19990;-33
2022/12/19 01:03:06;;;;;;;;;;;;;;;1.03;nan;103011.09;5035233;28;19925;-34
2022/12/19 01:05:31;;;;;;;;;;;;;;;1.02;nan;103012.06;5037417;28;19924;-33
2022/12/19 01:07:56;;;;;;;;;;;;;;;1.06;nan;103007.38;5035415;28;19921;-34
2022/12/19 01:10:22;;;;;;;;;;;;;;;1.12;nan;103001.59;5028582;28;19924;-34
2022/12/19 01:12:47;;;;;;;;;;;;;;;1.09;nan;102993.94;5031200;28;19925;-34
2022/12/19 01:15:14;;;;;;;;;;;;;;;1.06;nan;102999.44;5039161;28;20349;-36
2022/12/19 01:17:39;;;;;;;;;;;;;;;1.05;nan;102995.13;5032100;28;19921;-34
2022/12/19 01:20:05;;;;;;;;;;;;;;;1.06;nan;103007.38;5031413;28;19917;-34
2022/12/19 01:22:30;;;;;;;;;;;;;;;1.08;nan;103011.56;5041267;28;20000;-33
2022/12/19 01:24:56;;;;;;;;;;;;;;;1.08;nan;103008.09;5027760;28;19939;-36
2022/12/19 01:27:21;;;;;;;;;;;;;;;1.05;nan;103003.06;5031476;28;19952;-36
2022/12/19 01:29:46;;;;;;;;;;;;;;;1.08;nan;103001.03;5035170;28;19948;-34
2022/12/19 01:32:12;;;;;;;;;;;;;;;1.07;nan;102995.84;5035659;28;19916;-35
2022/12/19 01:34:37;;;;;;;;;;;;;;;1.08;nan;102995.75;5036148;28;19928;-35
2022/12/19 01:37:02;;;;;;;;;;;;;;;1.07;nan;102993.19;5036039;28;19917;-33
2022/12/19 01:39:28;;;;;;;;;;;;;;;1.08;nan;102982.53;5036256;28;19921;-35
2022/12/19 01:41:53;;;;;;;;;;;;;;;1.08;nan;102974.63;5032364;28;19916;-33
2022/12/19 01:44:19;;;;;;;;;;;;;;;1.14;nan;102975.88;5031133;28;19924;-35
2022/12/19 01:46:48;;;;;;;;;;;;;;;1.15;nan;102965.19;5031762;28;19939;-34
2022/12/19 01:49:24;;;;;;;;;;;;;;;1.17;nan;102965.06;5028834;28;20008;-34
2022/12/19 01:51:50;;;;;;;;;;;;;;;1.18;nan;102958.81;5034448;28;19917;-35
2022/12/19 01:54:18;;;;;;;;;;;;;;;1.20;nan;102970.06;5034335;28;19929;-33
2022/12/19 01:56:47;;;;;;;;;;;;;;;1.25;nan;102961.75;5035529;28;19916;-34
2022/12/19 01:59:15;;;;;;;;;;;;;;;1.25;nan;102962.56;5028514;28;19917;-34
2022/12/19 02:01:44;;;;;;;;;;;;;;;1.27;nan;102968.59;5030342;28;19952;-34
2022/12/19 02:04:10;;;;;;;;;;;;;;;1.29;nan;102961.38;5029232;28;19948;-34
2022/12/19 02:06:38;;;;;;;;;;;;;;;1.30;nan;102975.41;5033146;28;20071;-34
2022/12/19 02:09:03;;;;;;;;;;;;;;;1.27;nan;102957.19;5030978;28;19921;-33
2022/12/19 02:11:32;;;;;;;;;;;;;;;1.26;nan;102964.28;5033488;28;19970;-33
2022/12/19 02:13:57;;;;;;;;;;;;;;;1.19;nan;102942.00;5035538;28;19933;-33
2022/12/19 02:16:39;;;;;;;;;;;;;;;1.15;nan;102938.78;5033631;28;20066;-35
2022/12/19 02:19:19;;;;;;;;;;;;;;;1.06;nan;102922.88;5033785;28;19944;-33
2022/12/19 02:21:51;;;;;;;;;;;;;;;1.09;nan;102925.28;5033269;28;19928;-33
2022/12/19 02:24:35;;;;;;;;;;;;;;;1.09;nan;102904.16;5032921;28;20280;-34
2022/12/19 02:27:18;;;;;;;;;;;;;;;1.12;nan;102901.25;5039438;28;20024;-34
2022/12/19 02:29:43;;;;;;;;;;;;;;;1.15;nan;102896.53;5035205;28;19917;-33
2022/12/19 02:32:09;;;;;;;;;;;;;;;1.17;nan;102904.31;5039725;28;19916;-33
2022/12/19 02:35:10;;;;;;;;;;;;;;;1.16;nan;102886.81;5036745;28;19929;-34
2022/12/19 02:37:41;;;;;;;;;;;;;;;1.17;nan;102886.69;4956380;28;20189;-35
2022/12/19 02:40:16;;;;;;;;;;;;;;;1.22;nan;102880.97;5024990;28;19924;-33
2022/12/19 02:42:43;;;;;;;;;;;;;;;1.24;nan;102865.00;5032381;28;19936;-33
2022/12/19 02:45:10;;;;;;;;;;;;;;;1.29;nan;102868.94;5027492;28;20453;-33
2022/12/19 02:47:36;;;;;;;;;;;;;;;1.31;nan;102874.91;5030696;28;20372;-34
2022/12/19 02:50:03;;;;;;;;;;;;;;;1.27;nan;102864.75;5033888;28;19917;-34
2022/12/19 02:52:28;;;;;;;;;;;;;;;1.24;nan;102865.00;5030816;28;19921;-34
2022/12/19 02:54:56;;;;;;;;;;;;;;;1.22;nan;102875.69;5036940;28;19927;-34
2022/12/19 02:57:21;;;;;;;;;;;;;;;1.26;nan;102865.69;5033784;28;20454;-36
2022/12/19 02:59:56;;;;;;;;;;;;;;;1.27;nan;102876.16;5043064;28;20066;-34
2022/12/19 03:02:24;;;;;;;;;;;;;;;1.25;nan;102856.94;5034183;28;19921;-34
2022/12/19 03:04:58;;;;;;;;;;;;;;;1.24;nan;102835.97;5045028;28;19927;-34
2022/12/19 03:07:33;;;;;;;;;;;;;;;1.27;nan;102836.53;5041878;28;20513;-34
2022/12/19 03:10:07;;;;;;;;;;;;;;;1.25;nan;102829.69;5039153;28;19924;-33
2022/12/19 03:12:38;;;;;;;;;;;;;;;1.25;nan;102827.91;5042756;28;19952;-34
2022/12/19 03:15:04;;;;;;;;;;;;;;;1.14;nan;102820.94;5034026;28;20028;-33
2022/12/19 03:17:33;;;;;;;;;;;;;;;1.16;nan;102826.09;5035474;28;19924;-33
2022/12/19 03:19:59;;;;;;;;;;;;;;;1.15;nan;102816.50;5033471;28;19931;-36
2022/12/19 03:22:25;;;;;;;;;;;;;;;1.13;nan;102829.00;5035463;28;19917;-33
2022/12/19 03:24:50;;;;;;;;;;;;;;;1.10;nan;102822.19;5034900;28;19940;-33
2022/12/19 03:27:19;;;;;;;;;;;;;;;1.13;nan;102823.72;5032799;28;19917;-34
2022/12/19 03:29:49;;;;;;;;;;;;;;;1.14;nan;102820.09;5034912;28;19917;-33
2022/12/19 03:32:16;;;;;;;;;;;;;;;1.15;nan;102835.81;5036774;28;19916;-35
2022/12/19 03:34:50;;;;;;;;;;;;;;;1.16;nan;102844.56;5032069;28;19929;-33
2022/12/19 03:37:19;;;;;;;;;;;;;;;1.12;nan;102848.44;5030730;28;19962;-34
2022/12/19 03:39:47;;;;;;;;;;;;;;;1.08;nan;102852.34;5029991;28;20014;-33
2022/12/19 03:44:59;;;;;;;;;;;;;;;1.03;nan;102849.25;5038311;28;20348;-34
2022/12/19 03:47:47;;;;;;;;;;;;;;;1.01;nan;102844.09;5045267;28;19916;-34
2022/12/19 03:50:13;;;;;;;;;;;;;;;0.99;nan;102848.69;5028593;28;19983;-35
2022/12/19 03:52:57;;;;;;;;;;;;;;;0.95;nan;102843.81;5034215;28;19929;-33
2022/12/19 03:55:23;;;;;;;;;;;;;;;0.90;nan;102836.31;5033045;28;19924;-33
2022/12/19 03:58:08;;;;;;;;;;;;;;;0.92;nan;102833.53;5031286;28;19920;-35
2022/12/19 04:00:35;;;;;;;;;;;;;;;0.87;nan;102828.63;5033846;28;20614;-35
2022/12/19 04:03:02;;;;;;;;;;;;;;;0.90;nan;102823.94;5035722;28;19971;-33
2022/12/19 04:05:28;;;;;;;;;;;;;;;0.93;nan;102830.75;5029623;28;21112;-33
2022/12/19 04:07:55;;;;;;;;;;;;;;;0.86;nan;102833.06;5034095;28;19924;-34
2022/12/19 04:10:23;;;;;;;;;;;;;;;0.83;nan;102827.22;5039237;28;19917;-34
2022/12/19 04:13:06;;;;;;;;;;;;;;;0.81;nan;102824.72;5042163;28;19921;-33
2022/12/19 04:15:34;;;;;;;;;;;;;;;0.81;nan;102819.44;5040306;28;19921;-34
2022/12/19 04:18:02;;;;;;;;;;;;;;;0.81;nan;102808.88;5048530;28;19928;-33
2022/12/19 04:20:30;;;;;;;;;;;;;;;0.80;nan;102812.50;5040885;28;19923;-33
2022/12/19 04:22:58;;;;;;;;;;;;;;;0.76;nan;102805.81;5035625;28;21067;-34
2022/12/19 04:25:45;;;;;;;;;;;;;;;0.71;nan;102793.97;5030967;28;19923;-34
2022/12/19 04:28:24;;;;;;;;;;;;;;;0.69;nan;102794.13;5036229;28;19920;-34
2022/12/19 04:30:50;;;;;;;;;;;;;;;0.71;nan;102792.19;5036059;28;19925;-34
2022/12/19 04:33:15;;;;;;;;;;;;;;;0.65;nan;102776.88;5030719;28;19922;-36
2022/12/19 04:35:41;;;;;;;;;;;;;;;0.67;nan;102780.22;5041434;28;19917;-34
2022/12/19 04:38:06;;;;;;;;;;;;;;;0.66;nan;102773.28;5026058;28;19978;-34
2022/12/19 04:40:33;;;;;;;;;;;;;;;0.66;nan;102772.44;5032341;28;19920;-34
2022/12/19 04:42:58;;;;;;;;;;;;;;;0.69;nan;102780.09;5047610;28;19963;-33
2022/12/19 04:45:23;;;;;;;;;;;;;;;0.67;nan;102774.94;5039813;28;19952;-34
2022/12/19 04:47:48;;;;;;;;;;;;;;;0.68;nan;102787.16;5036262;28;19959;-34
2022/12/19 04:50:14;;;;;;;;;;;;;;;0.66;nan;102775.91;5039571;28;19965;-33
2022/12/19 04:52:39;;;;;;;;;;;;;;;0.59;nan;102769.50;5029008;28;19921;-33
2022/12/19 04:55:05;;;;;;;;;;;;;;;0.58;nan;102771.31;5039573;28;20384;-33
2022/12/19 04:57:30;;;;;;;;;;;;;;;0.60;nan;102776.47;5043506;28;20345;-34
2022/12/19 04:59:56;;;;;;;;;;;;;;;0.58;nan;102784.50;5033410;28;19917;-33
2022/12/19 05:02:21;;;;;;;;;;;;;;;0.58;nan;102786.31;5037212;28;20026;-34
2022/12/19 05:04:46;;;;;;;;;;;;;;;0.58;nan;102784.50;5035158;28;19963;-36
2022/12/19 05:07:12;;;;;;;;;;;;;;;0.60;nan;102782.56;5039674;28;19943;-35
2022/12/19 05:09:38;;;;;;;;;;;;;;;0.54;nan;102774.38;5026281;28;20618;-33
2022/12/19 05:12:03;;;;;;;;;;;;;;;0.56;nan;102769.78;5032483;28;19924;-33
2022/12/19 05:14:28;;;;;;;;;;;;;;;0.58;nan;102759.94;5028866;28;19939;-33
2022/12/19 05:16:54;;;;;;;;;;;;;;;0.62;nan;102748.13;5035365;28;19917;-33
2022/12/19 05:19:19;;;;;;;;;;;;;;;0.58;nan;102744.94;5025794;28;19928;-33
2022/12/19 05:21:45;;;;;;;;;;;;;;;0.55;nan;102732.03;5030159;28;19978;-34
2022/12/19 05:24:10;;;;;;;;;;;;;;;0.53;nan;102722.56;5030341;28;19916;-35
2022/12/19 05:26:36;;;;;;;;;;;;;;;0.50;nan;102725.47;5023773;28;19924;-34
2022/12/19 05:29:01;;;;;;;;;;;;;;;0.53;nan;102725.19;5031445;28;19917;-34
2022/12/19 05:31:26;;;;;;;;;;;;;;;0.52;nan;102716.44;5029776;28;19924;-33
2022/12/19 05:33:52;;;;;;;;;;;;;;;0.54;nan;102725.09;5027916;28;19927;-33
2022/12/19 05:36:18;;;;;;;;;;;;;;;0.59;nan;102736.06;5025209;28;19971;-35
2022/12/19 05:38:44;;;;;;;;;;;;;;;0.53;nan;102725.19;5029363;28;19917;-34
2022/12/19 05:41:13;;;;;;;;;;;;;;;0.59;nan;102725.50;5033165;28;20430;-35
2022/12/19 05:43:39;;;;;;;;;;;;;;;0.59;nan;102722.03;5034179;28;19948;-34
2022/12/19 05:46:04;;;;;;;;;;;;;;;0.61;nan;102717.47;5029926;28;19917;-34
2022/12/19 05:48:30;;;;;;;;;;;;;;;0.57;nan;102719.53;5028739;28;20163;-33
2022/12/19 05:50:55;;;;;;;;;;;;;;;0.62;nan;102713.00;5026656;28;20463;-34
2022/12/19 05:53:21;;;;;;;;;;;;;;;0.65;nan;102718.84;5032795;28;19929;-34
2022/12/19 05:55:46;;;;;;;;;;;;;;;0.68;nan;102734.41;5030483;28;19928;-34
2022/12/19 05:58:12;;;;;;;;;;;;;;;0.74;nan;102727.78;5025592;28;19921;-34
2022/12/19 06:00:37;;;;;;;;;;;;;;;0.72;nan;102721.78;5028078;28;19925;-31
2022/12/19 06:03:02;;;;;;;;;;;;;;;0.73;nan;102707.63;5031500;28;19917;-31
2022/12/19 06:05:28;;;;;;;;;;;;;;;0.76;nan;102710.84;5025799;28;20058;-31
2022/12/19 06:07:53;;;;;;;;;;;;;;;0.77;nan;102709.03;5033924;28;19976;-31
2022/12/19 06:10:18;;;;;;;;;;;;;;;0.78;nan;102698.34;5030771;28;19974;-31
2022/12/19 06:12:44;;;;;;;;;;;;;;;0.71;nan;102694.56;5026672;28;20396;-31
2022/12/19 06:15:10;;;;;;;;;;;;;;;0.70;nan;102706.06;5026926;28;20334;-31
2022/12/19 06:17:35;;;;;;;;;;;;;;;0.72;nan;102703.31;5030939;28;19924;-31
2022/12/19 06:20:00;;;;;;;;;;;;;;;0.75;nan;102703.06;5026332;28;19923;-31
2022/12/19 06:22:25;;;;;;;;;;;;;;;0.74;nan;102707.50;5029595;28;20376;-31
2022/12/19 06:24:51;;;;;;;;;;;;;;;0.73;nan;102699.72;5029799;28;20769;-31
2022/12/19 06:27:16;;;;;;;;;;;;;;;0.73;nan;102699.72;5032046;28;20349;-31
2022/12/19 06:29:42;;;;;;;;;;;;;;;0.74;nan;102691.66;5027581;28;19921;-31
2022/12/19 06:32:07;;;;;;;;;;;;;;;0.71;nan;102691.91;5028673;28;19921;-31
2022/12/19 06:34:32;;;;;;;;;;;;;;;0.74;nan;102689.03;5028415;28;20325;-31
2022/12/19 06:36:58;;;;;;;;;;;;;;;0.76;nan;102686.25;5030166;28;19925;-31
2022/12/19 06:39:23;;;;;;;;;;;;;;;0.83;nan;102682.91;5027723;28;19996;-31
2022/12/19 06:44:32;;;;;;;;;;;;;;;0.80;nan;102675.28;5028414;28;20424;-31
2022/12/19 06:46:58;;;;;;;;;;;;;;;0.82;nan;102677.78;5033212;28;20019;-31
2022/12/19 06:49:23;;;;;;;;;;;;;;;0.82;nan;102673.34;5031079;28;19921;-31
2022/12/19 06:51:48;;;;;;;;;;;;;;;0.88;nan;102677.22;5032319;28;19928;-31
2022/12/19 06:54:14;;;;;;;;;;;;;;;0.86;nan;102677.38;5026949;28;19921;-31
2022/12/19 06:56:40;;;;;;;;;;;;;;;0.85;nan;102670.41;5027316;28;19921;-31
2022/12/19 06:59:06;;;;;;;;;;;;;;;0.92;nan;102677.81;5029940;28;19917;-31
2022/12/19 07:01:49;;;;;;;;;;;;;;;0.86;nan;102663.34;5025203;28;19928;-31
2022/12/19 07:04:17;;;;;;;;;;;;;;;0.93;nan;102656.56;5029766;28;19920;-31
2022/12/19 07:06:42;;;;;;;;;;;;;;;0.92;nan;102656.69;5031075;28;19928;-31
2022/12/19 07:09:08;;;;;;;;;;;;;;;0.91;nan;102640.03;5030208;28;20095;-31
2022/12/19 07:11:33;;;;;;;;;;;;;;;0.94;nan;102636.28;5031758;28;19921;-31
2022/12/19 07:13:58;;;;;;;;;;;;;;;0.96;nan;102634.31;5031059;28;19925;-31
2022/12/19 07:16:24;;;;;;;;;;;;;;;0.96;nan;102642.25;5027360;28;19928;-31
2022/12/19 07:18:49;;;;;;;;;;;;;;;1.04;nan;102645.84;5029288;28;19920;-31
2022/12/19 07:21:15;;;;;;;;;;;;;;;1.09;nan;102645.44;5022386;28;20058;-31
2022/12/19 07:23:41;;;;;;;;;;;;;;;1.11;nan;102651.41;5028649;28;19917;-31
2022/12/19 07:26:07;;;;;;;;;;;;;;;1.13;nan;102652.09;5026992;28;19925;-31
2022/12/19 07:28:33;;;;;;;;;;;;;;;1.14;nan;102649.31;5027512;28;19956;-31
2022/12/19 07:30:59;;;;;;;;;;;;;;;1.21;nan;102639.03;5027663;28;19921;-31
2022/12/19 07:33:24;;;;;;;;;;;;;;;1.16;nan;102643.91;5030358;28;19932;-31
2022/12/19 07:35:49;;;;;;;;;;;;;;;1.24;nan;102651.13;5029698;28;20316;-31
2022/12/19 07:38:15;;;;;;;;;;;;;;;1.26;nan;102643.88;5030650;28;20389;-31
2022/12/19 07:40:40;;;;;;;;;;;;;;;1.25;nan;102650.13;5030157;28;19917;-31
2022/12/19 07:43:05;;;;;;;;;;;;;;;1.20;nan;102640.84;5030715;28;20027;-31
2022/12/19 07:45:31;;;;;;;;;;;;;;;1.24;nan;102649.31;5031290;28;19948;-31
2022/12/19 07:48:00;;;;;;;;;;;;;;;1.27;nan;102653.50;5033728;28;20304;-31
2022/12/19 07:50:25;;;;;;;;;;;;;;;1.31;nan;102644.31;5032127;28;19921;-31
2022/12/19 07:52:51;;;;;;;;;;;;;;;1.32;nan;102644.16;5033392;28;19994;-31
2022/12/19 07:55:16;;;;;;;;;;;;;;;1.34;nan;102652.78;5033259;28;20000;-31
2022/12/19 07:57:42;;;;;;;;;;;;;;;1.36;nan;102650.84;5030037;28;19931;-31
2022/12/19 08:00:07;;;;;;;;;;;;;;;1.33;nan;102640.56;5032760;28;19924;-31
2022/12/19 08:02:33;;;;;;;;;;;;;;;1.34;nan;102644.03;5033741;28;19944;-31
2022/12/19 08:05:01;;;;;;;;;;;;;;;1.34;nan;102644.84;5033312;28;20326;-31
2022/12/19 08:07:26;;;;;;;;;;;;;;;1.36;nan;102634.97;5032665;28;19921;-31
2022/12/19 08:09:52;;;;;;;;;;;;;;;1.37;nan;102627.88;5032335;28;19925;-31
2022/12/19 08:12:17;;;;;;;;;;;;;;;1.41;nan;102623.97;5031617;28;19957;-31
2022/12/19 08:14:42;;;;;;;;;;;;;;;1.42;nan;102618.56;5034614;28;20010;-31
2022/12/19 08:17:08;;;;;;;;;;;;;;;1.50;nan;102613.41;5030866;28;19978;-31
2022/12/19 08:19:33;;;;;;;;;;;;;;;1.49;nan;102613.56;5032563;28;19916;-31
2022/12/19 08:21:59;;;;;;;;;;;;;;;1.54;nan;102607.84;5032324;28;19917;-31
2022/12/19 08:24:24;;;;;;;;;;;;;;;1.50;nan;102594.09;5030948;28;19920;-31
2022/12/19 08:26:49;;;;;;;;;;;;;;;1.50;nan;102591.44;5031143;28;19927;-31
2022/12/19 08:29:15;;;;;;;;;;;;;;;1.59;nan;102597.66;5030046;28;19918;-31
2022/12/19 08:31:40;;;;;;;;;;;;;;;1.62;nan;102574.47;5028867;28;20183;-31
2022/12/19 08:34:05;;;;;;;;;;;;;;;1.70;nan;102571.91;5030578;28;19925;-31
2022/12/19 08:36:31;;;;;;;;;;;;;;;1.79;nan;102578.13;5032654;28;19918;-31
2022/12/19 08:38:56;;;;;;;;;;;;;;;1.90;nan;102574.47;5030927;28;20034;-31
2022/12/19 08:41:22;;;;;;;;;;;;;;;1.87;nan;102559.72;5032448;28;20380;-31
2022/12/19 08:43:51;;;;;;;;;;;;;;;1.91;nan;102554.97;5031295;28;19978;-31
2022/12/19 08:46:17;;;;;;;;;;;;;;;1.94;nan;102542.28;5033255;28;19921;-31
2022/12/19 08:48:43;;;;;;;;;;;;;;;1.96;nan;102544.78;5032394;28;19927;-31
2022/12/19 08:51:10;;;;;;;;;;;;;;;1.96;nan;102553.56;5030974;28;19921;-31
2022/12/19 08:53:36;;;;;;;;;;;;;;;2.03;nan;102557.28;5032639;28;20059;-31
2022/12/19 08:56:07;;;;;;;;;;;;;;;2.04;nan;102556.31;5031059;28;20392;-31
2022/12/19 08:58:32;;;;;;;;;;;;;;;2.09;nan;102553.22;5033182;28;20514;-31
2022/12/19 09:00:59;;;;;;;;;;;;;;;2.13;nan;102536.06;5031041;28;19978;-31
2022/12/19 09:03:24;;;;;;;;;;;;;;;2.22;nan;102542.28;5035077;28;19920;-31
2022/12/19 09:06:00;;;;;;;;;;;;;;;2.25;nan;102532.22;5031569;28;20285;-31
2022/12/19 09:08:27;;;;;;;;;;;;;;;2.31;nan;102520.22;5031435;28;19918;-31
2022/12/19 09:10:56;;;;;;;;;;;;;;;2.36;nan;102518.81;5031186;28;19921;-31
2022/12/19 09:13:21;;;;;;;;;;;;;;;2.36;nan;102523.25;5032482;28;20364;-31
2022/12/19 09:15:47;;;;;;;;;;;;;;;2.40;nan;102527.25;5030512;28;19924;-31
2022/12/19 09:18:12;;;;;;;;;;;;;;;2.46;nan;102521.34;5030945;28;20175;-31
2022/12/19 09:20:37;;;;;;;;;;;;;;;2.52;nan;102512.00;5030440;28;20284;-31
2022/12/19 09:23:03;;;;;;;;;;;;;;;2.57;nan;102507.91;5028802;28;20578;-31
2022/12/19 09:25:28;;;;;;;;;;;;;;;2.56;nan;102503.59;5039210;28;20456;-31
2022/12/19 09:27:54;;;;;;;;;;;;;;;2.62;nan;102502.16;5029997;28;19924;-31
2022/12/19 09:30:19;;;;;;;;;;;;;;;2.66;nan;102499.03;5033046;28;19921;-31
2022/12/19 09:32:44;;;;;;;;;;;;;;;2.72;nan;102503.75;5029801;28;19924;-31
2022/12/19 09:35:10;;;;;;;;;;;;;;;2.80;nan;102502.13;5029479;28;20393;-31
2022/12/19 09:37:35;;;;;;;;;;;;;;;2.87;nan;102511.09;5033485;28;20016;-31
2022/12/19 09:40:00;;;;;;;;;;;;;;;2.88;nan;102495.09;5029324;28;19979;-31
2022/12/19 09:42:35;;;;;;;;;;;;;;;2.95;nan;102497.94;5031026;28;19924;-31
2022/12/19 09:45:11;;;;;;;;;;;;;;;3.01;nan;102497.31;5031701;28;19944;-31
2022/12/19 09:47:41;;;;;;;;;;;;;;;3.09;nan;102494.72;5038038;28;19917;-31
2022/12/19 09:50:19;;;;;;;;;;;;;;;3.18;nan;102477.88;5033368;28;20022;-31
2022/12/19 09:52:50;;;;;;;;;;;;;;;3.22;nan;102473.94;5029382;28;20396;-31
2022/12/19 09:55:16;;;;;;;;;;;;;;;3.32;nan;102464.06;5032685;28;20423;-31
2022/12/19 09:57:41;;;;;;;;;;;;;;;3.45;nan;102457.50;5027652;28;19925;-31
2022/12/19 10:00:11;;;;;;;;;;;;;;;3.51;nan;102452.38;5023873;28;19982;-31
2022/12/19 10:02:40;;;;;;;;;;;;;;;3.61;nan;102447.78;5030243;28;19917;-31
2022/12/19 10:05:15;;;;;;;;;;;;;;;3.63;nan;102444.97;5028017;28;19972;-31
2022/12/19 10:07:42;;;;;;;;;;;;;;;3.61;nan;102441.66;5029187;28;19924;-31
2022/12/19 10:10:12;;;;;;;;;;;;;;;3.64;nan;102425.44;5029231;28;19925;-31
2022/12/19 10:12:46;;;;;;;;;;;;;;;3.63;nan;102416.66;5032359;28;19956;-31
2022/12/19 10:15:15;;;;;;;;;;;;;;;3.59;nan;102415.31;5031950;28;19955;-31
2022/12/19 10:17:40;;;;;;;;;;;;;;;3.64;nan;102407.69;5029744;28;19923;-31
2022/12/19 10:20:18;;;;;;;;;;;;;;;3.65;nan;102405.88;5028528;28;19921;-31
2022/12/19 10:22:49;;;;;;;;;;;;;;;3.69;nan;102406.38;5028416;28;20004;-31
2022/12/19 10:25:20;;;;;;;;;;;;;;;3.69;nan;102390.47;5033645;28;19916;-31
2022/12/19 10:27:51;;;;;;;;;;;;;;;3.73;nan;102397.94;5031630;28;19959;-31
2022/12/19 10:30:19;;;;;;;;;;;;;;;3.80;nan;102388.34;5030944;28;20000;-31
2022/12/19 10:32:55;;;;;;;;;;;;;;;3.83;nan;102390.69;5027667;28;19917;-31
2022/12/19 10:35:21;;;;;;;;;;;;;;;3.85;nan;102386.03;5029192;28;20661;-31
2022/12/19 10:37:58;;;;;;;;;;;;;;;3.87;nan;102384.03;5032649;28;19917;-31
2022/12/19 10:40:29;;;;;;;;;;;;;;;3.88;nan;102374.28;5011433;28;20372;-31
2022/12/19 10:43:10;;;;;;;;;;;;;;;3.96;nan;102368.16;5028179;28;19920;-31
2022/12/19 10:45:38;;;;;;;;;;;;;;;3.94;nan;102370.94;5027173;28;20007;-31
2022/12/19 10:48:10;;;;;;;;;;;;;;;3.98;nan;102366.16;5029000;28;19947;-31
2022/12/19 10:50:37;;;;;;;;;;;;;;;4.04;nan;102368.16;5029943;28;19925;-31
2022/12/19 10:53:02;;;;;;;;;;;;;;;4.08;nan;102354.38;5028945;28;20012;-31
2022/12/19 10:55:39;;;;;;;;;;;;;;;4.10;nan;102359.53;5030636;28;20023;-31
2022/12/19 10:58:12;;;;;;;;;;;;;;;4.04;nan;102352.22;5029465;28;20447;-31
2022/12/19 11:00:44;;;;;;;;;;;;;;;4.11;nan;102340.78;5031591;28;19917;-31
2022/12/19 11:03:14;;;;;;;;;;;;;;;4.10;nan;102343.59;5033499;28;19936;-31
2022/12/19 11:05:40;;;;;;;;;;;;;;;4.14;nan;102334.34;5034429;28;20039;-31
2022/12/19 11:08:05;;;;;;;;;;;;;;;4.11;nan;102332.00;5027347;28;19971;-31
2022/12/19 11:10:47;;;;;;;;;;;;;;;4.15;nan;102330.69;5028852;28;19920;-31
2022/12/19 11:13:18;;;;;;;;;;;;;;;4.27;nan;102323.19;5033228;28;19952;-31
2022/12/19 11:16:10;;;;;;;;;;;;;;;4.28;nan;102306.28;5039110;28;19917;-31
2022/12/19 11:18:38;;;;;;;;;;;;;;;4.25;nan;102312.75;5032652;28;19952;-31
2022/12/19 11:21:16;;;;;;;;;;;;;;;4.27;nan;102308.09;5035554;28;19932;-31
2022/12/19 11:23:47;;;;;;;;;;;;;;;4.33;nan;102301.31;5036023;28;20352;-31
2022/12/19 11:26:26;;;;;;;;;;;;;;;4.36;nan;102307.09;5035815;28;19921;-31
2022/12/19 11:28:51;;;;;;;;;;;;;;;4.37;nan;102298.16;5034832;28;19924;-31
2022/12/19 11:31:25;;;;;;;;;;;;;;;4.39;nan;102296.16;5032540;28;19921;-31
2022/12/19 11:33:54;;;;;;;;;;;;;;;4.41;nan;102295.97;5034302;28;19921;-31
2022/12/19 11:36:42;;;;;;;;;;;;;;;4.46;nan;102283.84;5033611;28;19917;-31
2022/12/19 11:39:36;;;;;;;;;;;;;;;4.49;nan;102278.22;5033006;28;20453;-31
2022/12/19 11:42:07;;;;;;;;;;;;;;;4.43;nan;102264.78;5014314;28;20164;-31
2022/12/19 11:44:45;;;;;;;;;;;;;;;4.49;nan;102262.31;5036160;28;20027;-31
2022/12/19 11:47:28;;;;;;;;;;;;;;;4.54;nan;102259.94;5032985;28;19925;-31
2022/12/19 11:49:58;;;;;;;;;;;;;;;4.59;nan;102256.78;5024198;28;19968;-31
2022/12/19 11:52:35;;;;;;;;;;;;;;;4.59;nan;102258.59;5024238;28;19952;-31
2022/12/19 11:55:07;;;;;;;;;;;;;;;4.65;nan;102255.25;5031754;28;19964;-31
2022/12/19 11:57:32;;;;;;;;;;;;;;;4.65;nan;102249.94;5029642;28;19943;-31
2022/12/19 11:59:58;;;;;;;;;;;;;;;4.68;nan;102236.34;5027440;28;20439;-31
2022/12/19 12:02:23;;;;;;;;;;;;;;;4.67;nan;102237.31;5029652;28;19917;-31
2022/12/19 12:05:07;;;;;;;;;;;;;;;4.68;nan;102239.00;5027173;28;19925;-31
2022/12/19 12:07:37;;;;;;;;;;;;;;;4.73;nan;102234.00;5033844;28;19928;-31
2022/12/19 12:10:05;;;;;;;;;;;;;;;4.75;nan;102224.84;5026220;28;19936;-31
2022/12/19 12:13:00;;;;;;;;;;;;;;;4.83;nan;102226.63;5031618;28;19974;-31
2022/12/19 12:15:44;;;;;;;;;;;;;;;4.91;nan;102220.47;4968720;28;19994;-32
2022/12/19 12:18:15;;;;;;;;;;;;;;;4.92;nan;102233.56;5034135;28;20108;-31
2022/12/19 12:20:50;;;;;;;;;;;;;;;4.96;nan;102223.41;5032555;28;19924;-31
2022/12/19 12:23:18;;;;;;;;;;;;;;;4.96;nan;102218.09;5027084;28;20028;-31
2022/12/19 12:26:02;;;;;;;;;;;;;;;4.97;nan;102212.59;5013579;28;20589;-31
2022/12/19 12:28:47;;;;;;;;;;;;;;;4.93;nan;102208.66;5018567;28;19928;-31
2022/12/19 12:31:25;;;;;;;;;;;;;;;5.01;nan;102203.28;5025035;28;20301;-31
2022/12/19 12:34:10;;;;;;;;;;;;;;;5.00;nan;102193.66;5025631;28;20319;-31
2022/12/19 12:36:54;;;;;;;;;;;;;;;5.06;nan;102189.50;5024076;28;20023;-31
2022/12/19 12:39:25;;;;;;;;;;;;;;;5.13;nan;102183.28;5025244;28;19987;-31
2022/12/19 12:42:03;;;;;;;;;;;;;;;5.14;nan;102181.44;5025891;28;19920;-31
2022/12/19 12:44:32;;;;;;;;;;;;;;;5.21;nan;102181.59;5031671;28;19925;-31
2022/12/19 12:47:04;;;;;;;;;;;;;;;5.19;nan;102184.41;5029046;28;19920;-31
2022/12/19 12:49:32;;;;;;;;;;;;;;;5.29;nan;102190.31;5027221;28;19921;-31
2022/12/19 12:51:59;;;;;;;;;;;;;;;5.33;nan;102180.97;5025472;28;20040;-31
2022/12/19 12:54:28;;;;;;;;;;;;;;;5.35;nan;102178.13;5027731;28;19929;-34
2022/12/19 12:56:54;;;;;;;;;;;;;;;5.34;nan;102166.69;5028497;28;20475;-36
2022/12/19 12:59:19;;;;;;;;;;;;;;;5.41;nan;102166.81;5029091;28;20020;-34
2022/12/19 13:01:48;;;;;;;;;;;;;;;5.43;nan;102160.31;5025979;28;20024;-35
2022/12/19 13:04:13;;;;;;;;;;;;;;;5.44;nan;102164.59;5028654;28;19943;-34
2022/12/19 13:07:02;;;;;;;;;;;;;;;5.50;nan;102164.88;5027325;28;19921;-35
2022/12/19 13:09:33;;;;;;;;;;;;;;;5.54;nan;102161.69;4996234;28;20015;-37
2022/12/19 13:14:48;;;;;;;;;;;;;;;5.61;nan;102146.69;5031748;28;20000;-34
2022/12/19 13:17:23;;;;;;;;;;;;;;;5.69;nan;102140.44;5027135;28;19921;-34
2022/12/19 13:19:53;;;;;;;;;;;;;;;5.70;nan;102145.56;5026013;28;19945;-34
2022/12/19 13:22:21;;;;;;;;;;;;;;;5.75;nan;102143.22;5032746;28;19932;-34
2022/12/19 13:24:46;;;;;;;;;;;;;;;5.79;nan;102140.19;5027207;28;19940;-37